sensor_id;sensor_type;location;lat;lon;timestamp;P1;durP1;ratioP1;P2;durP2;ratioP2
77726;SDS011;68312;53.502;10.030;2023-08-12T00:05:54;7.55;;;3.80;;
77726;SDS011;68312;53.502;10.030;2023-08-12T00:08:21;6.38;;;4.13;;
77726;SDS011;68312;53.502;10.030;2023-08-12T00:10:47;6.45;;;3.90;;
77726;SDS011;68312;53.502;10.030;2023-08-12T00:13:12;7.05;;;4.00;;
77726;SDS011;68312;53.502;10.030;2023-08-12T00:15:42;5.82;;;4.22;;
77726;SDS011;68312;53.502;10.030;2023-08-12T00:18:08;7.25;;;3.95;;
77726;SDS011;68312;53.502;10.030;2023-08-12T00:20:34;7.35;;;4.05;;
77726;SDS011;68312;53.502;10.030;2023-08-12T00:22:59;4.90;;;3.88;;
77726;SDS011;68312;53.502;10.030;2023-08-12T00:25:25;7.22;;;3.72;;
77726;SDS011;68312;53.502;10.030;2023-08-12T00:27:50;7.55;;;3.67;;
77726;SDS011;68312;53.502;10.030;2023-08-12T00:30:15;5.63;;;4.00;;
77726;SDS011;68312;53.502;10.030;2023-08-12T00:32:41;4.72;;;3.90;;
77726;SDS011;68312;53.502;10.030;2023-08-12T00:35:06;5.10;;;3.67;;
77726;SDS011;68312;53.502;10.030;2023-08-12T00:40:41;5.57;;;3.97;;
77726;SDS011;68312;53.502;10.030;2023-08-12T00:43:06;5.78;;;3.45;;
77726;SDS011;68312;53.502;10.030;2023-08-12T00:45:32;5.80;;;4.00;;
77726;SDS011;68312;53.502;10.030;2023-08-12T00:47:58;6.38;;;3.78;;
77726;SDS011;68312;53.502;10.030;2023-08-12T00:50:24;6.22;;;4.13;;
77726;SDS011;68312;53.502;10.030;2023-08-12T00:52:50;9.20;;;3.42;;
77726;SDS011;68312;53.502;10.030;2023-08-12T00:55:16;4.80;;;3.72;;
77726;SDS011;68312;53.502;10.030;2023-08-12T00:57:43;4.70;;;3.65;;
77726;SDS011;68312;53.502;10.030;2023-08-12T01:00:08;7.90;;;3.95;;
77726;SDS011;68312;53.502;10.030;2023-08-12T01:02:34;6.25;;;3.95;;
77726;SDS011;68312;53.502;10.030;2023-08-12T01:05:00;5.75;;;3.42;;
77726;SDS011;68312;53.502;10.030;2023-08-12T01:07:25;5.07;;;3.45;;
77726;SDS011;68312;53.502;10.030;2023-08-12T01:09:51;5.15;;;3.40;;
77726;SDS011;68312;53.502;10.030;2023-08-12T01:12:32;8.73;;;3.80;;
77726;SDS011;68312;53.502;10.030;2023-08-12T01:15:07;5.53;;;3.58;;
77726;SDS011;68312;53.502;10.030;2023-08-12T01:17:47;5.07;;;3.35;;
77726;SDS011;68312;53.502;10.030;2023-08-12T01:26:52;5.28;;;3.50;;
77726;SDS011;68312;53.502;10.030;2023-08-12T01:29:17;5.30;;;3.25;;
77726;SDS011;68312;53.502;10.030;2023-08-12T01:31:58;7.72;;;3.88;;
77726;SDS011;68312;53.502;10.030;2023-08-12T01:34:41;5.75;;;3.63;;
77726;SDS011;68312;53.502;10.030;2023-08-12T01:37:11;6.40;;;3.65;;
77726;SDS011;68312;53.502;10.030;2023-08-12T01:39:46;5.38;;;3.38;;
77726;SDS011;68312;53.502;10.030;2023-08-12T01:45:50;5.97;;;3.15;;
77726;SDS011;68312;53.502;10.030;2023-08-12T01:48:15;5.97;;;3.42;;
77726;SDS011;68312;53.502;10.030;2023-08-12T01:50:40;3.92;;;3.05;;
77726;SDS011;68312;53.502;10.030;2023-08-12T01:53:11;6.93;;;3.50;;
77726;SDS011;68312;53.502;10.030;2023-08-12T01:55:37;4.90;;;3.80;;
77726;SDS011;68312;53.502;10.030;2023-08-12T01:58:02;4.60;;;3.22;;
77726;SDS011;68312;53.502;10.030;2023-08-12T02:00:28;10.70;;;3.75;;
77726;SDS011;68312;53.502;10.030;2023-08-12T02:02:53;5.22;;;3.53;;
77726;SDS011;68312;53.502;10.030;2023-08-12T02:05:19;8.13;;;3.95;;
77726;SDS011;68312;53.502;10.030;2023-08-12T02:07:44;9.05;;;3.72;;
77726;SDS011;68312;53.502;10.030;2023-08-12T02:10:10;5.15;;;3.00;;
77726;SDS011;68312;53.502;10.030;2023-08-12T02:12:35;4.93;;;3.33;;
77726;SDS011;68312;53.502;10.030;2023-08-12T02:15:01;4.60;;;3.30;;
77726;SDS011;68312;53.502;10.030;2023-08-12T02:17:26;6.97;;;3.65;;
77726;SDS011;68312;53.502;10.030;2023-08-12T02:19:51;4.95;;;3.20;;
77726;SDS011;68312;53.502;10.030;2023-08-12T02:22:17;6.13;;;3.55;;
77726;SDS011;68312;53.502;10.030;2023-08-12T02:24:42;5.72;;;3.55;;
77726;SDS011;68312;53.502;10.030;2023-08-12T02:27:08;4.95;;;3.08;;
77726;SDS011;68312;53.502;10.030;2023-08-12T02:29:33;4.18;;;3.17;;
77726;SDS011;68312;53.502;10.030;2023-08-12T02:31:59;7.82;;;3.65;;
77726;SDS011;68312;53.502;10.030;2023-08-12T02:34:24;8.18;;;3.70;;
77726;SDS011;68312;53.502;10.030;2023-08-12T02:36:49;4.53;;;3.40;;
77726;SDS011;68312;53.502;10.030;2023-08-12T02:39:15;6.15;;;3.55;;
77726;SDS011;68312;53.502;10.030;2023-08-12T02:41:41;4.43;;;3.45;;
77726;SDS011;68312;53.502;10.030;2023-08-12T02:46:56;6.28;;;3.75;;
77726;SDS011;68312;53.502;10.030;2023-08-12T02:49:22;4.32;;;3.45;;
77726;SDS011;68312;53.502;10.030;2023-08-12T02:51:47;7.05;;;4.32;;
77726;SDS011;68312;53.502;10.030;2023-08-12T02:54:12;5.80;;;3.72;;
77726;SDS011;68312;53.502;10.030;2023-08-12T02:56:38;7.32;;;3.53;;
77726;SDS011;68312;53.502;10.030;2023-08-12T02:59:05;5.55;;;4.05;;
77726;SDS011;68312;53.502;10.030;2023-08-12T03:01:30;7.20;;;4.20;;
77726;SDS011;68312;53.502;10.030;2023-08-12T03:03:56;11.80;;;4.05;;
77726;SDS011;68312;53.502;10.030;2023-08-12T03:06:21;5.05;;;3.70;;
77726;SDS011;68312;53.502;10.030;2023-08-12T03:08:46;7.13;;;4.43;;
77726;SDS011;68312;53.502;10.030;2023-08-12T03:11:12;6.47;;;3.58;;
77726;SDS011;68312;53.502;10.030;2023-08-12T03:13:37;5.75;;;3.63;;
77726;SDS011;68312;53.502;10.030;2023-08-12T03:16:03;5.15;;;3.80;;
77726;SDS011;68312;53.502;10.030;2023-08-12T03:18:28;5.30;;;3.50;;
77726;SDS011;68312;53.502;10.030;2023-08-12T03:20:54;5.78;;;3.55;;
77726;SDS011;68312;53.502;10.030;2023-08-12T03:23:19;6.28;;;3.78;;
77726;SDS011;68312;53.502;10.030;2023-08-12T03:25:46;5.82;;;3.85;;
77726;SDS011;68312;53.502;10.030;2023-08-12T03:28:13;6.45;;;4.25;;
77726;SDS011;68312;53.502;10.030;2023-08-12T03:30:39;5.13;;;3.70;;
77726;SDS011;68312;53.502;10.030;2023-08-12T03:33:04;7.28;;;3.75;;
77726;SDS011;68312;53.502;10.030;2023-08-12T03:35:29;5.20;;;3.50;;
77726;SDS011;68312;53.502;10.030;2023-08-12T03:37:55;6.03;;;3.67;;
77726;SDS011;68312;53.502;10.030;2023-08-12T03:40:20;9.68;;;3.80;;
77726;SDS011;68312;53.502;10.030;2023-08-12T03:42:45;4.75;;;3.53;;
77726;SDS011;68312;53.502;10.030;2023-08-12T03:45:11;5.35;;;3.70;;
77726;SDS011;68312;53.502;10.030;2023-08-12T03:47:36;6.63;;;3.88;;
77726;SDS011;68312;53.502;10.030;2023-08-12T03:50:02;6.70;;;3.40;;
77726;SDS011;68312;53.502;10.030;2023-08-12T03:52:27;6.45;;;3.42;;
77726;SDS011;68312;53.502;10.030;2023-08-12T03:54:53;5.65;;;3.85;;
77726;SDS011;68312;53.502;10.030;2023-08-12T03:57:18;5.55;;;3.30;;
77726;SDS011;68312;53.502;10.030;2023-08-12T03:59:44;8.23;;;3.80;;
77726;SDS011;68312;53.502;10.030;2023-08-12T04:02:09;4.85;;;3.40;;
77726;SDS011;68312;53.502;10.030;2023-08-12T04:04:34;4.35;;;3.40;;
77726;SDS011;68312;53.502;10.030;2023-08-12T04:07:01;5.88;;;3.55;;
77726;SDS011;68312;53.502;10.030;2023-08-12T04:09:26;5.40;;;3.58;;
77726;SDS011;68312;53.502;10.030;2023-08-12T04:11:51;6.30;;;3.47;;
77726;SDS011;68312;53.502;10.030;2023-08-12T04:14:17;5.82;;;3.20;;
77726;SDS011;68312;53.502;10.030;2023-08-12T04:16:42;5.38;;;3.42;;
77726;SDS011;68312;53.502;10.030;2023-08-12T04:19:08;8.00;;;3.20;;
77726;SDS011;68312;53.502;10.030;2023-08-12T04:21:33;6.25;;;3.35;;
77726;SDS011;68312;53.502;10.030;2023-08-12T04:23:58;4.63;;;3.30;;
77726;SDS011;68312;53.502;10.030;2023-08-12T04:26:24;6.47;;;3.95;;
77726;SDS011;68312;53.502;10.030;2023-08-12T04:28:49;4.65;;;3.20;;
77726;SDS011;68312;53.502;10.030;2023-08-12T04:31:14;6.40;;;3.72;;
77726;SDS011;68312;53.502;10.030;2023-08-12T04:33:40;5.50;;;3.47;;
77726;SDS011;68312;53.502;10.030;2023-08-12T04:36:05;5.65;;;4.30;;
77726;SDS011;68312;53.502;10.030;2023-08-12T04:38:31;5.60;;;3.92;;
77726;SDS011;68312;53.502;10.030;2023-08-12T04:40:57;6.05;;;3.90;;
77726;SDS011;68312;53.502;10.030;2023-08-12T04:43:23;7.20;;;3.63;;
77726;SDS011;68312;53.502;10.030;2023-08-12T04:45:57;5.88;;;3.90;;
77726;SDS011;68312;53.502;10.030;2023-08-12T04:48:23;8.02;;;4.32;;
77726;SDS011;68312;53.502;10.030;2023-08-12T04:50:48;6.38;;;4.00;;
77726;SDS011;68312;53.502;10.030;2023-08-12T04:53:13;6.10;;;3.88;;
77726;SDS011;68312;53.502;10.030;2023-08-12T04:55:39;6.13;;;3.53;;
77726;SDS011;68312;53.502;10.030;2023-08-12T04:58:04;5.00;;;3.22;;
77726;SDS011;68312;53.502;10.030;2023-08-12T05:00:30;8.52;;;3.80;;
77726;SDS011;68312;53.502;10.030;2023-08-12T05:06:26;4.65;;;3.50;;
77726;SDS011;68312;53.502;10.030;2023-08-12T05:08:52;6.07;;;3.50;;
77726;SDS011;68312;53.502;10.030;2023-08-12T05:11:17;4.78;;;3.25;;
77726;SDS011;68312;53.502;10.030;2023-08-12T05:13:43;6.13;;;3.60;;
77726;SDS011;68312;53.502;10.030;2023-08-12T05:16:08;4.20;;;2.80;;
77726;SDS011;68312;53.502;10.030;2023-08-12T05:18:33;5.47;;;3.47;;
77726;SDS011;68312;53.502;10.030;2023-08-12T05:20:59;7.05;;;3.25;;
77726;SDS011;68312;53.502;10.030;2023-08-12T05:23:24;5.85;;;2.92;;
77726;SDS011;68312;53.502;10.030;2023-08-12T05:25:50;7.40;;;4.47;;
77726;SDS011;68312;53.502;10.030;2023-08-12T05:28:15;6.05;;;3.80;;
77726;SDS011;68312;53.502;10.030;2023-08-12T05:34:21;6.25;;;3.47;;
77726;SDS011;68312;53.502;10.030;2023-08-12T05:36:47;5.50;;;3.90;;
77726;SDS011;68312;53.502;10.030;2023-08-12T05:39:12;5.20;;;3.80;;
77726;SDS011;68312;53.502;10.030;2023-08-12T05:41:38;4.60;;;3.33;;
77726;SDS011;68312;53.502;10.030;2023-08-12T05:44:03;5.28;;;3.08;;
77726;SDS011;68312;53.502;10.030;2023-08-12T05:46:29;4.40;;;3.63;;
77726;SDS011;68312;53.502;10.030;2023-08-12T05:48:55;7.00;;;3.67;;
77726;SDS011;68312;53.502;10.030;2023-08-12T05:51:20;6.82;;;3.85;;
77726;SDS011;68312;53.502;10.030;2023-08-12T05:53:45;3.90;;;3.25;;
77726;SDS011;68312;53.502;10.030;2023-08-12T05:56:11;9.18;;;4.10;;
77726;SDS011;68312;53.502;10.030;2023-08-12T05:58:38;7.07;;;3.75;;
77726;SDS011;68312;53.502;10.030;2023-08-12T06:01:03;5.30;;;3.65;;
77726;SDS011;68312;53.502;10.030;2023-08-12T06:03:28;4.85;;;3.63;;
77726;SDS011;68312;53.502;10.030;2023-08-12T06:05:54;5.00;;;3.42;;
77726;SDS011;68312;53.502;10.030;2023-08-12T06:08:19;8.32;;;4.25;;
77726;SDS011;68312;53.502;10.030;2023-08-12T06:10:44;8.52;;;3.92;;
77726;SDS011;68312;53.502;10.030;2023-08-12T06:13:10;6.38;;;3.85;;
77726;SDS011;68312;53.502;10.030;2023-08-12T06:15:35;5.85;;;4.15;;
77726;SDS011;68312;53.502;10.030;2023-08-12T06:18:01;5.63;;;3.97;;
77726;SDS011;68312;53.502;10.030;2023-08-12T06:20:27;4.97;;;3.78;;
77726;SDS011;68312;53.502;10.030;2023-08-12T06:22:53;4.55;;;3.55;;
77726;SDS011;68312;53.502;10.030;2023-08-12T06:25:19;6.90;;;4.10;;
77726;SDS011;68312;53.502;10.030;2023-08-12T06:30:44;6.05;;;4.43;;
77726;SDS011;68312;53.502;10.030;2023-08-12T06:33:11;6.07;;;4.10;;
77726;SDS011;68312;53.502;10.030;2023-08-12T06:35:36;9.70;;;6.32;;
77726;SDS011;68312;53.502;10.030;2023-08-12T06:38:01;11.40;;;5.95;;
77726;SDS011;68312;53.502;10.030;2023-08-12T06:40:27;11.15;;;5.53;;
77726;SDS011;68312;53.502;10.030;2023-08-12T06:42:52;8.73;;;6.05;;
77726;SDS011;68312;53.502;10.030;2023-08-12T06:45:18;8.10;;;6.07;;
77726;SDS011;68312;53.502;10.030;2023-08-12T06:47:43;8.88;;;5.47;;
77726;SDS011;68312;53.502;10.030;2023-08-12T06:50:09;9.02;;;5.30;;
77726;SDS011;68312;53.502;10.030;2023-08-12T06:52:34;11.80;;;7.28;;
77726;SDS011;68312;53.502;10.030;2023-08-12T06:54:59;9.77;;;7.03;;
77726;SDS011;68312;53.502;10.030;2023-08-12T06:57:25;10.68;;;7.03;;
77726;SDS011;68312;53.502;10.030;2023-08-12T06:59:50;11.95;;;6.95;;
77726;SDS011;68312;53.502;10.030;2023-08-12T07:02:15;9.40;;;6.78;;
77726;SDS011;68312;53.502;10.030;2023-08-12T07:04:41;10.27;;;6.53;;
77726;SDS011;68312;53.502;10.030;2023-08-12T07:07:07;9.40;;;6.57;;
77726;SDS011;68312;53.502;10.030;2023-08-12T07:09:32;9.35;;;5.90;;
77726;SDS011;68312;53.502;10.030;2023-08-12T07:11:57;13.88;;;7.60;;
77726;SDS011;68312;53.502;10.030;2023-08-12T07:14:23;12.20;;;6.78;;
77726;SDS011;68312;53.502;10.030;2023-08-12T07:16:48;12.00;;;6.90;;
77726;SDS011;68312;53.502;10.030;2023-08-12T07:19:14;9.07;;;6.32;;
77726;SDS011;68312;53.502;10.030;2023-08-12T07:21:40;11.95;;;7.50;;
77726;SDS011;68312;53.502;10.030;2023-08-12T07:24:05;12.07;;;6.88;;
77726;SDS011;68312;53.502;10.030;2023-08-12T07:26:31;12.45;;;8.23;;
77726;SDS011;68312;53.502;10.030;2023-08-12T07:28:57;11.02;;;7.28;;
77726;SDS011;68312;53.502;10.030;2023-08-12T07:31:23;9.65;;;6.95;;
77726;SDS011;68312;53.502;10.030;2023-08-12T07:33:48;10.98;;;7.72;;
77726;SDS011;68312;53.502;10.030;2023-08-12T07:36:13;8.98;;;6.20;;
77726;SDS011;68312;53.502;10.030;2023-08-12T07:38:52;8.98;;;6.63;;
77726;SDS011;68312;53.502;10.030;2023-08-12T07:41:17;12.30;;;7.68;;
77726;SDS011;68312;53.502;10.030;2023-08-12T07:43:43;14.00;;;7.43;;
77726;SDS011;68312;53.502;10.030;2023-08-12T07:46:08;11.90;;;7.18;;
77726;SDS011;68312;53.502;10.030;2023-08-12T07:48:34;12.55;;;7.00;;
77726;SDS011;68312;53.502;10.030;2023-08-12T07:51:00;13.35;;;8.40;;
77726;SDS011;68312;53.502;10.030;2023-08-12T07:53:26;12.88;;;7.72;;
77726;SDS011;68312;53.502;10.030;2023-08-12T07:55:51;11.70;;;7.43;;
77726;SDS011;68312;53.502;10.030;2023-08-12T07:58:17;9.82;;;6.22;;
77726;SDS011;68312;53.502;10.030;2023-08-12T08:00:43;14.07;;;8.32;;
77726;SDS011;68312;53.502;10.030;2023-08-12T08:03:08;12.40;;;7.55;;
77726;SDS011;68312;53.502;10.030;2023-08-12T08:05:33;13.45;;;7.63;;
77726;SDS011;68312;53.502;10.030;2023-08-12T08:07:59;12.13;;;7.72;;
77726;SDS011;68312;53.502;10.030;2023-08-12T08:10:24;12.85;;;7.25;;
77726;SDS011;68312;53.502;10.030;2023-08-12T08:12:50;12.75;;;8.15;;
77726;SDS011;68312;53.502;10.030;2023-08-12T08:15:15;10.93;;;8.00;;
77726;SDS011;68312;53.502;10.030;2023-08-12T08:17:41;13.75;;;8.07;;
77726;SDS011;68312;53.502;10.030;2023-08-12T08:20:07;10.00;;;7.38;;
77726;SDS011;68312;53.502;10.030;2023-08-12T08:22:33;12.52;;;8.05;;
77726;SDS011;68312;53.502;10.030;2023-08-12T08:24:59;11.32;;;7.30;;
77726;SDS011;68312;53.502;10.030;2023-08-12T08:27:25;10.07;;;7.22;;
77726;SDS011;68312;53.502;10.030;2023-08-12T08:29:50;12.48;;;7.90;;
77726;SDS011;68312;53.502;10.030;2023-08-12T08:32:16;10.05;;;7.82;;
77726;SDS011;68312;53.502;10.030;2023-08-12T08:34:43;13.77;;;7.55;;
77726;SDS011;68312;53.502;10.030;2023-08-12T08:37:09;10.75;;;6.95;;
77726;SDS011;68312;53.502;10.030;2023-08-12T08:39:35;10.02;;;7.55;;
77726;SDS011;68312;53.502;10.030;2023-08-12T08:42:00;11.35;;;7.78;;
77726;SDS011;68312;53.502;10.030;2023-08-12T08:44:29;13.23;;;7.82;;
77726;SDS011;68312;53.502;10.030;2023-08-12T08:46:57;12.57;;;7.50;;
77726;SDS011;68312;53.502;10.030;2023-08-12T08:49:24;12.50;;;7.50;;
77726;SDS011;68312;53.502;10.030;2023-08-12T08:51:50;10.50;;;7.80;;
77726;SDS011;68312;53.502;10.030;2023-08-12T08:54:17;14.77;;;8.18;;
77726;SDS011;68312;53.502;10.030;2023-08-12T08:56:45;13.63;;;7.32;;
77726;SDS011;68312;53.502;10.030;2023-08-12T08:59:14;10.98;;;8.18;;
77726;SDS011;68312;53.502;10.030;2023-08-12T09:01:39;12.27;;;8.57;;
77726;SDS011;68312;53.502;10.030;2023-08-12T09:04:06;9.05;;;6.60;;
77726;SDS011;68312;53.502;10.030;2023-08-12T09:06:33;10.90;;;7.88;;
77726;SDS011;68312;53.502;10.030;2023-08-12T09:09:01;14.02;;;7.60;;
77726;SDS011;68312;53.502;10.030;2023-08-12T09:11:28;11.85;;;7.53;;
77726;SDS011;68312;53.502;10.030;2023-08-12T09:13:55;12.45;;;8.00;;
77726;SDS011;68312;53.502;10.030;2023-08-12T09:16:20;14.13;;;7.75;;
77726;SDS011;68312;53.502;10.030;2023-08-12T09:18:45;11.82;;;7.68;;
77726;SDS011;68312;53.502;10.030;2023-08-12T09:21:11;12.98;;;7.10;;
77726;SDS011;68312;53.502;10.030;2023-08-12T09:23:37;9.82;;;7.57;;
77726;SDS011;68312;53.502;10.030;2023-08-12T09:26:20;12.48;;;8.43;;
77726;SDS011;68312;53.502;10.030;2023-08-12T09:28:47;11.45;;;7.97;;
77726;SDS011;68312;53.502;10.030;2023-08-12T09:31:23;14.05;;;7.75;;
77726;SDS011;68312;53.502;10.030;2023-08-12T09:33:50;13.00;;;8.50;;
77726;SDS011;68312;53.502;10.030;2023-08-12T09:36:16;13.10;;;8.48;;
77726;SDS011;68312;53.502;10.030;2023-08-12T09:38:43;14.95;;;9.13;;
77726;SDS011;68312;53.502;10.030;2023-08-12T09:43:57;15.50;;;8.50;;
77726;SDS011;68312;53.502;10.030;2023-08-12T09:46:22;12.60;;;8.10;;
77726;SDS011;68312;53.502;10.030;2023-08-12T09:51:50;12.93;;;7.78;;
77726;SDS011;68312;53.502;10.030;2023-08-12T09:54:17;11.95;;;7.93;;
77726;SDS011;68312;53.502;10.030;2023-08-12T09:56:43;15.07;;;8.00;;
77726;SDS011;68312;53.502;10.030;2023-08-12T09:59:15;12.85;;;7.78;;
77726;SDS011;68312;53.502;10.030;2023-08-12T10:01:45;10.35;;;7.18;;
77726;SDS011;68312;53.502;10.030;2023-08-12T10:04:12;12.18;;;6.50;;
77726;SDS011;68312;53.502;10.030;2023-08-12T10:06:45;8.35;;;6.47;;
77726;SDS011;68312;53.502;10.030;2023-08-12T10:09:12;7.32;;;5.07;;
77726;SDS011;68312;53.502;10.030;2023-08-12T10:11:40;10.38;;;5.22;;
77726;SDS011;68312;53.502;10.030;2023-08-12T10:14:08;8.88;;;4.35;;
77726;SDS011;68312;53.502;10.030;2023-08-12T10:16:35;7.75;;;4.32;;
77726;SDS011;68312;53.502;10.030;2023-08-12T10:19:02;9.60;;;4.88;;
77726;SDS011;68312;53.502;10.030;2023-08-12T10:21:30;8.95;;;4.80;;
77726;SDS011;68312;53.502;10.030;2023-08-12T10:23:58;8.07;;;4.38;;
77726;SDS011;68312;53.502;10.030;2023-08-12T10:26:26;9.50;;;4.78;;
77726;SDS011;68312;53.502;10.030;2023-08-12T10:28:53;6.35;;;3.53;;
77726;SDS011;68312;53.502;10.030;2023-08-12T10:31:19;8.45;;;4.90;;
77726;SDS011;68312;53.502;10.030;2023-08-12T10:33:48;8.05;;;4.15;;
77726;SDS011;68312;53.502;10.030;2023-08-12T10:36:14;8.07;;;4.55;;
77726;SDS011;68312;53.502;10.030;2023-08-12T10:45:20;7.95;;;4.70;;
77726;SDS011;68312;53.502;10.030;2023-08-12T10:50:34;10.80;;;4.85;;
77726;SDS011;68312;53.502;10.030;2023-08-12T10:53:20;8.00;;;4.97;;
77726;SDS011;68312;53.502;10.030;2023-08-12T10:55:48;8.38;;;5.10;;
77726;SDS011;68312;53.502;10.030;2023-08-12T10:58:24;7.55;;;4.35;;
77726;SDS011;68312;53.502;10.030;2023-08-12T11:00:59;8.55;;;4.30;;
77726;SDS011;68312;53.502;10.030;2023-08-12T11:03:24;6.88;;;4.40;;
77726;SDS011;68312;53.502;10.030;2023-08-12T11:05:50;7.10;;;4.72;;
77726;SDS011;68312;53.502;10.030;2023-08-12T11:08:15;6.18;;;3.72;;
77726;SDS011;68312;53.502;10.030;2023-08-12T11:10:41;5.97;;;4.50;;
77726;SDS011;68312;53.502;10.030;2023-08-12T11:13:08;7.57;;;4.40;;
77726;SDS011;68312;53.502;10.030;2023-08-12T11:15:35;7.68;;;4.03;;
77726;SDS011;68312;53.502;10.030;2023-08-12T11:18:07;6.03;;;3.57;;
77726;SDS011;68312;53.502;10.030;2023-08-12T11:20:39;6.00;;;2.97;;
77726;SDS011;68312;53.502;10.030;2023-08-12T11:23:06;6.47;;;2.95;;
77726;SDS011;68312;53.502;10.030;2023-08-12T11:25:33;6.38;;;3.28;;
77726;SDS011;68312;53.502;10.030;2023-08-12T11:28:03;5.05;;;3.10;;
77726;SDS011;68312;53.502;10.030;2023-08-12T11:30:30;4.82;;;3.42;;
77726;SDS011;68312;53.502;10.030;2023-08-12T11:32:55;6.18;;;3.33;;
77726;SDS011;68312;53.502;10.030;2023-08-12T11:35:22;4.78;;;3.20;;
77726;SDS011;68312;53.502;10.030;2023-08-12T11:37:50;6.57;;;3.15;;
77726;SDS011;68312;53.502;10.030;2023-08-12T11:40:19;6.47;;;3.35;;
77726;SDS011;68312;53.502;10.030;2023-08-12T11:42:46;4.25;;;3.03;;
77726;SDS011;68312;53.502;10.030;2023-08-12T11:45:14;5.93;;;2.97;;
77726;SDS011;68312;53.502;10.030;2023-08-12T11:47:44;4.93;;;3.20;;
77726;SDS011;68312;53.502;10.030;2023-08-12T11:50:22;5.55;;;2.72;;
77726;SDS011;68312;53.502;10.030;2023-08-12T11:52:50;5.53;;;3.55;;
77726;SDS011;68312;53.502;10.030;2023-08-12T11:55:17;5.70;;;3.47;;
77726;SDS011;68312;53.502;10.030;2023-08-12T11:57:43;6.70;;;3.85;;
77726;SDS011;68312;53.502;10.030;2023-08-12T12:00:09;6.53;;;3.42;;
77726;SDS011;68312;53.502;10.030;2023-08-12T12:02:41;5.25;;;3.90;;
77726;SDS011;68312;53.502;10.030;2023-08-12T12:05:17;6.50;;;4.75;;
77726;SDS011;68312;53.502;10.030;2023-08-12T12:07:47;7.30;;;4.03;;
77726;SDS011;68312;53.502;10.030;2023-08-12T12:10:17;9.25;;;5.10;;
77726;SDS011;68312;53.502;10.030;2023-08-12T12:13:04;5.95;;;3.95;;
77726;SDS011;68312;53.502;10.030;2023-08-12T12:15:48;6.72;;;4.53;;
77726;SDS011;68312;53.502;10.030;2023-08-12T12:18:13;6.90;;;4.50;;
77726;SDS011;68312;53.502;10.030;2023-08-12T12:20:53;7.85;;;5.13;;
77726;SDS011;68312;53.502;10.030;2023-08-12T12:23:27;8.88;;;5.70;;
77726;SDS011;68312;53.502;10.030;2023-08-12T12:26:00;6.85;;;5.38;;
77726;SDS011;68312;53.502;10.030;2023-08-12T12:28:27;7.53;;;5.40;;
77726;SDS011;68312;53.502;10.030;2023-08-12T12:30:53;9.38;;;5.30;;
77726;SDS011;68312;53.502;10.030;2023-08-12T12:33:19;9.43;;;4.72;;
77726;SDS011;68312;53.502;10.030;2023-08-12T12:35:45;6.32;;;4.63;;
77726;SDS011;68312;53.502;10.030;2023-08-12T12:41:48;7.45;;;4.93;;
77726;SDS011;68312;53.502;10.030;2023-08-12T12:44:14;7.22;;;4.53;;
77726;SDS011;68312;53.502;10.030;2023-08-12T12:46:39;7.45;;;5.00;;
77726;SDS011;68312;53.502;10.030;2023-08-12T12:49:05;8.15;;;4.93;;
77726;SDS011;68312;53.502;10.030;2023-08-12T12:51:31;6.43;;;4.70;;
77726;SDS011;68312;53.502;10.030;2023-08-12T12:53:56;8.40;;;4.35;;
77726;SDS011;68312;53.502;10.030;2023-08-12T12:56:22;12.15;;;5.85;;
77726;SDS011;68312;53.502;10.030;2023-08-12T12:58:47;9.15;;;6.10;;
77726;SDS011;68312;53.502;10.030;2023-08-12T13:01:13;8.10;;;5.40;;
77726;SDS011;68312;53.502;10.030;2023-08-12T13:03:38;6.80;;;4.75;;
77726;SDS011;68312;53.502;10.030;2023-08-12T13:06:04;6.32;;;4.53;;
77726;SDS011;68312;53.502;10.030;2023-08-12T13:08:39;8.30;;;4.50;;
77726;SDS011;68312;53.502;10.030;2023-08-12T13:11:04;7.95;;;4.75;;
77726;SDS011;68312;53.502;10.030;2023-08-12T13:13:30;6.90;;;4.95;;
77726;SDS011;68312;53.502;10.030;2023-08-12T13:15:55;7.35;;;5.07;;
77726;SDS011;68312;53.502;10.030;2023-08-12T13:18:21;8.73;;;4.70;;
77726;SDS011;68312;53.502;10.030;2023-08-12T13:20:46;7.03;;;4.90;;
77726;SDS011;68312;53.502;10.030;2023-08-12T13:23:12;8.38;;;4.93;;
77726;SDS011;68312;53.502;10.030;2023-08-12T13:25:37;7.10;;;4.93;;
77726;SDS011;68312;53.502;10.030;2023-08-12T13:28:03;9.95;;;5.93;;
77726;SDS011;68312;53.502;10.030;2023-08-12T13:30:29;7.63;;;5.45;;
77726;SDS011;68312;53.502;10.030;2023-08-12T13:32:55;8.57;;;5.40;;
77726;SDS011;68312;53.502;10.030;2023-08-12T13:35:22;9.93;;;6.32;;
77726;SDS011;68312;53.502;10.030;2023-08-12T13:37:51;6.68;;;4.65;;
77726;SDS011;68312;53.502;10.030;2023-08-12T13:40:16;7.63;;;5.20;;
77726;SDS011;68312;53.502;10.030;2023-08-12T13:42:42;8.70;;;5.22;;
77726;SDS011;68312;53.502;10.030;2023-08-12T13:45:09;6.65;;;4.38;;
77726;SDS011;68312;53.502;10.030;2023-08-12T13:47:36;7.90;;;4.95;;
77726;SDS011;68312;53.502;10.030;2023-08-12T13:50:01;6.38;;;4.80;;
77726;SDS011;68312;53.502;10.030;2023-08-12T13:52:28;9.00;;;4.95;;
77726;SDS011;68312;53.502;10.030;2023-08-12T13:54:53;9.70;;;5.40;;
77726;SDS011;68312;53.502;10.030;2023-08-12T13:57:19;8.45;;;4.53;;
77726;SDS011;68312;53.502;10.030;2023-08-12T13:59:44;10.10;;;4.85;;
77726;SDS011;68312;53.502;10.030;2023-08-12T14:02:10;7.85;;;4.65;;
77726;SDS011;68312;53.502;10.030;2023-08-12T14:04:36;6.90;;;4.60;;
77726;SDS011;68312;53.502;10.030;2023-08-12T14:07:02;7.97;;;5.53;;
77726;SDS011;68312;53.502;10.030;2023-08-12T14:09:29;8.10;;;4.82;;
77726;SDS011;68312;53.502;10.030;2023-08-12T14:11:54;9.70;;;6.15;;
77726;SDS011;68312;53.502;10.030;2023-08-12T14:14:20;7.80;;;5.40;;
77726;SDS011;68312;53.502;10.030;2023-08-12T14:16:45;10.02;;;5.82;;
77726;SDS011;68312;53.502;10.030;2023-08-12T14:19:10;9.52;;;6.30;;
77726;SDS011;68312;53.502;10.030;2023-08-12T14:24:29;11.65;;;5.38;;
77726;SDS011;68312;53.502;10.030;2023-08-12T14:26:55;7.75;;;5.45;;
77726;SDS011;68312;53.502;10.030;2023-08-12T14:29:20;8.18;;;5.75;;
77726;SDS011;68312;53.502;10.030;2023-08-12T14:31:45;7.32;;;5.82;;
77726;SDS011;68312;53.502;10.030;2023-08-12T14:34:11;15.68;;;6.72;;
77726;SDS011;68312;53.502;10.030;2023-08-12T14:36:36;10.88;;;6.07;;
77726;SDS011;68312;53.502;10.030;2023-08-12T14:39:04;9.23;;;5.88;;
77726;SDS011;68312;53.502;10.030;2023-08-12T14:41:30;9.63;;;6.28;;
77726;SDS011;68312;53.502;10.030;2023-08-12T14:43:55;8.73;;;5.80;;
77726;SDS011;68312;53.502;10.030;2023-08-12T14:46:21;9.23;;;6.03;;
77726;SDS011;68312;53.502;10.030;2023-08-12T14:48:46;9.85;;;6.30;;
77726;SDS011;68312;53.502;10.030;2023-08-12T14:51:12;9.77;;;6.50;;
77726;SDS011;68312;53.502;10.030;2023-08-12T14:53:38;10.13;;;6.68;;
77726;SDS011;68312;53.502;10.030;2023-08-12T14:56:03;14.85;;;7.55;;
77726;SDS011;68312;53.502;10.030;2023-08-12T14:58:29;10.45;;;7.03;;
77726;SDS011;68312;53.502;10.030;2023-08-12T15:00:54;10.45;;;7.47;;
77726;SDS011;68312;53.502;10.030;2023-08-12T15:03:21;12.07;;;7.63;;
77726;SDS011;68312;53.502;10.030;2023-08-12T15:05:46;9.15;;;6.97;;
77726;SDS011;68312;53.502;10.030;2023-08-12T15:08:11;11.30;;;7.10;;
77726;SDS011;68312;53.502;10.030;2023-08-12T15:10:37;9.82;;;7.88;;
77726;SDS011;68312;53.502;10.030;2023-08-12T15:13:02;11.07;;;8.38;;
77726;SDS011;68312;53.502;10.030;2023-08-12T15:19:08;9.82;;;6.55;;
77726;SDS011;68312;53.502;10.030;2023-08-12T15:21:34;10.20;;;6.68;;
77726;SDS011;68312;53.502;10.030;2023-08-12T15:23:59;9.20;;;6.60;;